sensor_id;sensor_type;location;lat;lon;timestamp;temperature;humidity
13496;DHT22;6820;49.374;8.452;2022-11-15T00:00:37;10.34;99.99
13496;DHT22;6820;49.374;8.452;2022-11-15T00:04:57;10.35;99.99
13496;DHT22;6820;49.374;8.452;2022-11-15T00:09:17;10.36;99.99
13496;DHT22;6820;49.374;8.452;2022-11-15T00:13:37;10.38;99.99
13496;DHT22;6820;49.374;8.452;2022-11-15T00:17:57;10.38;99.99
13496;DHT22;6820;49.374;8.452;2022-11-15T00:22:18;10.42;99.99
13496;DHT22;6820;49.374;8.452;2022-11-15T00:26:38;10.43;99.99
13496;DHT22;6820;49.374;8.452;2022-11-15T00:31:05;10.44;99.99
13496;DHT22;6820;49.374;8.452;2022-11-15T00:35:27;10.43;99.99
13496;DHT22;6820;49.374;8.452;2022-11-15T00:39:48;10.44;99.99
13496;DHT22;6820;49.374;8.452;2022-11-15T00:44:08;10.49;99.99
13496;DHT22;6820;49.374;8.452;2022-11-15T00:48:28;10.49;99.99
13496;DHT22;6820;49.374;8.452;2022-11-15T00:52:48;10.49;99.99
13496;DHT22;6820;49.374;8.452;2022-11-15T00:57:08;10.51;99.99
13496;DHT22;6820;49.374;8.452;2022-11-15T01:01:29;10.52;99.99
13496;DHT22;6820;49.374;8.452;2022-11-15T01:05:48;10.54;99.99
13496;DHT22;6820;49.374;8.452;2022-11-15T01:10:09;10.54;99.99
13496;DHT22;6820;49.374;8.452;2022-11-15T01:14:29;10.52;99.99
13496;DHT22;6820;49.374;8.452;2022-11-15T01:18:50;10.52;99.99
13496;DHT22;6820;49.374;8.452;2022-11-15T01:23:09;10.52;99.99
13496;DHT22;6820;49.374;8.452;2022-11-15T01:27:30;10.51;99.99
13496;DHT22;6820;49.374;8.452;2022-11-15T01:31:50;10.47;99.99
13496;DHT22;6820;49.374;8.452;2022-11-15T01:36:15;10.43;99.99
13496;DHT22;6820;49.374;8.452;2022-11-15T01:40:36;10.36;99.99
13496;DHT22;6820;49.374;8.452;2022-11-15T01:44:57;10.38;99.99
13496;DHT22;6820;49.374;8.452;2022-11-15T01:49:18;10.38;99.99
13496;DHT22;6820;49.374;8.452;2022-11-15T01:53:40;10.35;99.99
13496;DHT22;6820;49.374;8.452;2022-11-15T01:58:05;10.32;99.99
13496;DHT22;6820;49.374;8.452;2022-11-15T02:02:26;10.29;99.99
13496;DHT22;6820;49.374;8.452;2022-11-15T02:06:47;10.31;99.99
13496;DHT22;6820;49.374;8.452;2022-11-15T02:11:08;10.32;99.99
13496;DHT22;6820;49.374;8.452;2022-11-15T02:15:30;10.34;99.99
13496;DHT22;6820;49.374;8.452;2022-11-15T02:43:22;10.34;99.99
13496;DHT22;6820;49.374;8.452;2022-11-15T02:48:07;10.31;99.99
13496;DHT22;6820;49.374;8.452;2022-11-15T02:52:29;10.26;99.99
13496;DHT22;6820;49.374;8.452;2022-11-15T02:56:50;10.26;99.99
13496;DHT22;6820;49.374;8.452;2022-11-15T03:01:32;10.28;99.99
13496;DHT22;6820;49.374;8.452;2022-11-15T03:11:09;10.29;99.99
13496;DHT22;6820;49.374;8.452;2022-11-15T03:15:32;10.29;99.99
13496;DHT22;6820;49.374;8.452;2022-11-15T03:19:58;10.29;99.99
13496;DHT22;6820;49.374;8.452;2022-11-15T03:24:23;10.34;99.99
13496;DHT22;6820;49.374;8.452;2022-11-15T03:28:57;10.35;99.99
13496;DHT22;6820;49.374;8.452;2022-11-15T03:33:23;10.36;99.99
13496;DHT22;6820;49.374;8.452;2022-11-15T03:42:42;10.39;99.99
13496;DHT22;6820;49.374;8.452;2022-11-15T03:47:11;10.42;99.99
13496;DHT22;6820;49.374;8.452;2022-11-15T03:51:37;10.43;99.99
13496;DHT22;6820;49.374;8.452;2022-11-15T03:55:57;10.46;99.99
13496;DHT22;6820;49.374;8.452;2022-11-15T04:00:18;10.49;99.99
13496;DHT22;6820;49.374;8.452;2022-11-15T04:04:38;10.49;99.99
13496;DHT22;6820;49.374;8.452;2022-11-15T04:08:58;10.49;99.99
13496;DHT22;6820;49.374;8.452;2022-11-15T04:13:19;10.51;99.99
13496;DHT22;6820;49.374;8.452;2022-11-15T04:17:40;10.51;99.99
13496;DHT22;6820;49.374;8.452;2022-11-15T04:22:02;10.51;99.99
13496;DHT22;6820;49.374;8.452;2022-11-15T04:26:42;10.51;99.99
13496;DHT22;6820;49.374;8.452;2022-11-15T04:31:02;10.52;99.99
13496;DHT22;6820;49.374;8.452;2022-11-15T04:35:22;10.52;99.99
13496;DHT22;6820;49.374;8.452;2022-11-15T04:39:42;10.54;99.99
13496;DHT22;6820;49.374;8.452;2022-11-15T04:44:03;10.55;99.99
13496;DHT22;6820;49.374;8.452;2022-11-15T04:48:23;10.55;99.99
13496;DHT22;6820;49.374;8.452;2022-11-15T04:52:49;10.57;99.99
13496;DHT22;6820;49.374;8.452;2022-11-15T04:57:11;10.55;99.99
13496;DHT22;6820;49.374;8.452;2022-11-15T05:01:31;10.55;99.99
13496;DHT22;6820;49.374;8.452;2022-11-15T05:05:52;10.55;99.99
13496;DHT22;6820;49.374;8.452;2022-11-15T05:10:12;10.55;99.99
13496;DHT22;6820;49.374;8.452;2022-11-15T05:14:32;10.57;99.99
13496;DHT22;6820;49.374;8.452;2022-11-15T05:18:53;10.57;99.99
13496;DHT22;6820;49.374;8.452;2022-11-15T05:23:13;10.57;99.99
13496;DHT22;6820;49.374;8.452;2022-11-15T05:27:34;10.58;99.99
13496;DHT22;6820;49.374;8.452;2022-11-15T05:31:54;10.57;99.99
13496;DHT22;6820;49.374;8.452;2022-11-15T05:40:41;10.60;99.99
13496;DHT22;6820;49.374;8.452;2022-11-15T05:45:02;10.58;99.99
13496;DHT22;6820;49.374;8.452;2022-11-15T05:49:32;10.58;99.99
13496;DHT22;6820;49.374;8.452;2022-11-15T05:53:55;10.55;99.99
13496;DHT22;6820;49.374;8.452;2022-11-15T05:58:18;10.57;99.99
13496;DHT22;6820;49.374;8.452;2022-11-15T06:02:40;10.55;99.99
13496;DHT22;6820;49.374;8.452;2022-11-15T06:07:00;10.54;99.99
13496;DHT22;6820;49.374;8.452;2022-11-15T06:11:21;10.51;99.99
13496;DHT22;6820;49.374;8.452;2022-11-15T06:15:41;10.49;99.99
13496;DHT22;6820;49.374;8.452;2022-11-15T06:20:01;10.47;99.99
13496;DHT22;6820;49.374;8.452;2022-11-15T06:24:22;10.47;99.99
13496;DHT22;6820;49.374;8.452;2022-11-15T06:28:42;10.49;99.99
13496;DHT22;6820;49.374;8.452;2022-11-15T06:33:03;10.49;99.99
13496;DHT22;6820;49.374;8.452;2022-11-15T06:37:24;10.51;99.99
13496;DHT22;6820;49.374;8.452;2022-11-15T06:41:44;10.52;99.99
13496;DHT22;6820;49.374;8.452;2022-11-15T06:46:05;10.51;99.99
13496;DHT22;6820;49.374;8.452;2022-11-15T06:50:27;10.47;99.99
13496;DHT22;6820;49.374;8.452;2022-11-15T06:54:47;10.47;99.99
13496;DHT22;6820;49.374;8.452;2022-11-15T06:59:07;10.49;99.99
13496;DHT22;6820;49.374;8.452;2022-11-15T07:03:28;10.49;99.99
13496;DHT22;6820;49.374;8.452;2022-11-15T07:07:53;10.52;99.99
13496;DHT22;6820;49.374;8.452;2022-11-15T07:12:14;10.57;99.99
13496;DHT22;6820;49.374;8.452;2022-11-15T07:16:35;10.62;99.99
13496;DHT22;6820;49.374;8.452;2022-11-15T07:21:00;10.63;99.99
13496;DHT22;6820;49.374;8.452;2022-11-15T07:25:20;10.65;99.99
13496;DHT22;6820;49.374;8.452;2022-11-15T07:29:41;10.68;99.99
13496;DHT22;6820;49.374;8.452;2022-11-15T07:34:01;10.70;99.99
13496;DHT22;6820;49.374;8.452;2022-11-15T07:38:21;10.73;99.99
13496;DHT22;6820;49.374;8.452;2022-11-15T07:42:41;10.76;99.99
13496;DHT22;6820;49.374;8.452;2022-11-15T07:47:13;10.83;99.99
13496;DHT22;6820;49.374;8.452;2022-11-15T07:51:34;10.88;99.99
13496;DHT22;6820;49.374;8.452;2022-11-15T07:55:54;10.93;99.99
13496;DHT22;6820;49.374;8.452;2022-11-15T08:00:14;10.98;99.99
13496;DHT22;6820;49.374;8.452;2022-11-15T08:04:35;11.02;99.99
13496;DHT22;6820;49.374;8.452;2022-11-15T08:08:55;11.05;99.99
13496;DHT22;6820;49.374;8.452;2022-11-15T08:13:15;11.08;99.99
13496;DHT22;6820;49.374;8.452;2022-11-15T08:17:36;11.13;99.99
13496;DHT22;6820;49.374;8.452;2022-11-15T08:21:56;11.20;99.99
13496;DHT22;6820;49.374;8.452;2022-11-15T08:26:16;11.26;99.99
13496;DHT22;6820;49.374;8.452;2022-11-15T08:30:38;11.30;99.99
13496;DHT22;6820;49.374;8.452;2022-11-15T08:35:01;11.33;99.99
13496;DHT22;6820;49.374;8.452;2022-11-15T08:39:21;11.35;99.99
13496;DHT22;6820;49.374;8.452;2022-11-15T08:43:41;11.36;99.99
13496;DHT22;6820;49.374;8.452;2022-11-15T08:48:02;11.38;99.99
13496;DHT22;6820;49.374;8.452;2022-11-15T08:52:23;11.41;99.99
13496;DHT22;6820;49.374;8.452;2022-11-15T08:56:43;11.46;99.99
13496;DHT22;6820;49.374;8.452;2022-11-15T09:01:03;11.54;99.99
13496;DHT22;6820;49.374;8.452;2022-11-15T09:05:24;11.59;99.99
13496;DHT22;6820;49.374;8.452;2022-11-15T09:09:44;11.62;99.99
13496;DHT22;6820;49.374;8.452;2022-11-15T09:14:04;11.66;99.99
13496;DHT22;6820;49.374;8.452;2022-11-15T09:18:25;11.75;99.99
13496;DHT22;6820;49.374;8.452;2022-11-15T09:22:45;11.85;99.99
13496;DHT22;6820;49.374;8.452;2022-11-15T09:27:06;11.96;99.99
13496;DHT22;6820;49.374;8.452;2022-11-15T09:31:26;12.03;99.99
13496;DHT22;6820;49.374;8.452;2022-11-15T09:35:47;12.08;99.99
13496;DHT22;6820;49.374;8.452;2022-11-15T09:40:11;12.15;99.99
13496;DHT22;6820;49.374;8.452;2022-11-15T09:44:45;12.25;99.99
13496;DHT22;6820;49.374;8.452;2022-11-15T09:49:15;12.38;99.99
13496;DHT22;6820;49.374;8.452;2022-11-15T09:53:37;12.49;99.99
13496;DHT22;6820;49.374;8.452;2022-11-15T09:58:33;12.55;99.99
13496;DHT22;6820;49.374;8.452;2022-11-15T10:06:51;12.61;99.99
13496;DHT22;6820;49.374;8.452;2022-11-15T10:11:00;12.61;99.99
13496;DHT22;6820;49.374;8.452;2022-11-15T10:15:23;12.62;99.99
13496;DHT22;6820;49.374;8.452;2022-11-15T10:23:36;12.67;99.99
13496;DHT22;6820;49.374;8.452;2022-11-15T10:27:38;12.67;99.99
13496;DHT22;6820;49.374;8.452;2022-11-15T10:31:42;12.67;99.99
13496;DHT22;6820;49.374;8.452;2022-11-15T10:35:43;12.70;99.99
13496;DHT22;6820;49.374;8.452;2022-11-15T10:39:49;12.71;99.99
13496;DHT22;6820;49.374;8.452;2022-11-15T10:48:20;12.77;99.99
13496;DHT22;6820;49.374;8.452;2022-11-15T10:52:23;12.81;99.99
13496;DHT22;6820;49.374;8.452;2022-11-15T10:56:26;12.85;99.99
13496;DHT22;6820;49.374;8.452;2022-11-15T11:00:35;12.89;99.99
13496;DHT22;6820;49.374;8.452;2022-11-15T11:04:50;12.94;99.99
13496;DHT22;6820;49.374;8.452;2022-11-15T11:09:03;13.01;99.99
13496;DHT22;6820;49.374;8.452;2022-11-15T11:26:35;13.32;99.99
13496;DHT22;6820;49.374;8.452;2022-11-15T11:44:18;13.53;99.99
13496;DHT22;6820;49.374;8.452;2022-11-15T11:57:06;13.69;99.99
13496;DHT22;6820;49.374;8.452;2022-11-15T12:01:16;13.71;99.99
13496;DHT22;6820;49.374;8.452;2022-11-15T12:09:57;13.75;99.99
13496;DHT22;6820;49.374;8.452;2022-11-15T12:14:03;13.75;99.99
13496;DHT22;6820;49.374;8.452;2022-11-15T12:18:15;13.76;99.99
13496;DHT22;6820;49.374;8.452;2022-11-15T12:22:19;13.76;99.99
13496;DHT22;6820;49.374;8.452;2022-11-15T12:26:26;13.76;99.99
13496;DHT22;6820;49.374;8.452;2022-11-15T12:30:41;13.80;99.99
13496;DHT22;6820;49.374;8.452;2022-11-15T12:34:46;13.83;99.99
13496;DHT22;6820;49.374;8.452;2022-11-15T12:42:59;13.87;99.99
13496;DHT22;6820;49.374;8.452;2022-11-15T12:47:13;13.90;99.99
13496;DHT22;6820;49.374;8.452;2022-11-15T12:55:44;13.98;99.99
13496;DHT22;6820;49.374;8.452;2022-11-15T13:08:43;13.98;99.99
13496;DHT22;6820;49.374;8.452;2022-11-15T13:12:49;14.01;99.99
13496;DHT22;6820;49.374;8.452;2022-11-15T13:16:58;14.01;99.99
13496;DHT22;6820;49.374;8.452;2022-11-15T13:21:00;13.99;99.99
13496;DHT22;6820;49.374;8.452;2022-11-15T13:29:42;13.94;99.99
13496;DHT22;6820;49.374;8.452;2022-11-15T13:33:44;13.94;99.99
13496;DHT22;6820;49.374;8.452;2022-11-15T13:37:46;13.90;99.99
13496;DHT22;6820;49.374;8.452;2022-11-15T13:41:48;13.93;99.99
13496;DHT22;6820;49.374;8.452;2022-11-15T13:50:21;13.94;99.99
13496;DHT22;6820;49.374;8.452;2022-11-15T13:54:29;13.98;99.99
13496;DHT22;6820;49.374;8.452;2022-11-15T13:58:37;13.93;99.99
13496;DHT22;6820;49.374;8.452;2022-11-15T14:02:40;13.88;99.99
13496;DHT22;6820;49.374;8.452;2022-11-15T14:06:46;13.83;99.99
13496;DHT22;6820;49.374;8.452;2022-11-15T14:11:05;13.80;99.99
13496;DHT22;6820;49.374;8.452;2022-11-15T14:15:27;13.76;99.99
13496;DHT22;6820;49.374;8.452;2022-11-15T14:19:39;13.71;99.99
13496;DHT22;6820;49.374;8.452;2022-11-15T14:23:41;13.65;99.99
13496;DHT22;6820;49.374;8.452;2022-11-15T14:27:43;13.62;99.99
13496;DHT22;6820;49.374;8.452;2022-11-15T14:32:13;13.61;99.99
13496;DHT22;6820;49.374;8.452;2022-11-15T14:36:18;13.61;99.99
13496;DHT22;6820;49.374;8.452;2022-11-15T14:40:21;13.57;99.99
13496;DHT22;6820;49.374;8.452;2022-11-15T14:44:23;13.51;99.99
13496;DHT22;6820;49.374;8.452;2022-11-15T14:48:24;13.46;99.99
13496;DHT22;6820;49.374;8.452;2022-11-15T14:52:30;13.46;99.99
13496;DHT22;6820;49.374;8.452;2022-11-15T14:56:36;13.39;99.99
13496;DHT22;6820;49.374;8.452;2022-11-15T15:00:38;13.36;99.99
13496;DHT22;6820;49.374;8.452;2022-11-15T15:04:41;13.31;99.99
13496;DHT22;6820;49.374;8.452;2022-11-15T15:08:43;13.27;99.99
13496;DHT22;6820;49.374;8.452;2022-11-15T15:12:44;13.24;99.99
13496;DHT22;6820;49.374;8.452;2022-11-15T15:16:46;13.22;99.99
13496;DHT22;6820;49.374;8.452;2022-11-15T15:20:50;13.17;99.99
13496;DHT22;6820;49.374;8.452;2022-11-15T15:24:56;13.14;99.99
13496;DHT22;6820;49.374;8.452;2022-11-15T15:28:58;13.12;99.99
13496;DHT22;6820;49.374;8.452;2022-11-15T15:32:59;13.07;99.99
13496;DHT22;6820;49.374;8.452;2022-11-15T15:41:24;13.03;99.99
13496;DHT22;6820;49.374;8.452;2022-11-15T15:45:26;12.98;99.99
13496;DHT22;6820;49.374;8.452;2022-11-15T15:49:29;12.95;99.99
13496;DHT22;6820;49.374;8.452;2022-11-15T15:53:30;12.94;99.99
13496;DHT22;6820;49.374;8.452;2022-11-15T15:57:32;12.94;99.99
13496;DHT22;6820;49.374;8.452;2022-11-15T16:01:34;12.92;99.99
13496;DHT22;6820;49.374;8.452;2022-11-15T16:05:35;12.91;99.99
13496;DHT22;6820;49.374;8.452;2022-11-15T16:09:37;12.91;99.99
13496;DHT22;6820;49.374;8.452;2022-11-15T16:13:57;12.89;99.99
13496;DHT22;6820;49.374;8.452;2022-11-15T16:17:59;12.89;99.99
13496;DHT22;6820;49.374;8.452;2022-11-15T16:22:01;12.91;99.99
13496;DHT22;6820;49.374;8.452;2022-11-15T16:26:04;12.89;99.99
13496;DHT22;6820;49.374;8.452;2022-11-15T16:30:20;12.88;99.99
13496;DHT22;6820;49.374;8.452;2022-11-15T16:34:23;12.87;99.99
13496;DHT22;6820;49.374;8.452;2022-11-15T16:38:31;12.87;99.99
13496;DHT22;6820;49.374;8.452;2022-11-15T16:42:33;12.87;99.99
13496;DHT22;6820;49.374;8.452;2022-11-15T16:46:35;12.85;99.99
13496;DHT22;6820;49.374;8.452;2022-11-15T16:50:36;12.85;99.99
13496;DHT22;6820;49.374;8.452;2022-11-15T16:54:41;12.87;99.99
13496;DHT22;6820;49.374;8.452;2022-11-15T16:58:42;12.85;99.99
13496;DHT22;6820;49.374;8.452;2022-11-15T17:02:44;12.85;99.99
13496;DHT22;6820;49.374;8.452;2022-11-15T17:06:47;12.85;99.99
13496;DHT22;6820;49.374;8.452;2022-11-15T17:10:49;12.85;99.99
13496;DHT22;6820;49.374;8.452;2022-11-15T17:14:51;12.85;99.99
13496;DHT22;6820;49.374;8.452;2022-11-15T17:18:53;12.87;99.99
13496;DHT22;6820;49.374;8.452;2022-11-15T17:22:54;12.87;99.99
13496;DHT22;6820;49.374;8.452;2022-11-15T17:26:56;12.88;99.99
13496;DHT22;6820;49.374;8.452;2022-11-15T17:30:58;12.87;99.99
13496;DHT22;6820;49.374;8.452;2022-11-15T17:35:00;12.89;99.99
13496;DHT22;6820;49.374;8.452;2022-11-15T17:39:02;12.88;99.99
13496;DHT22;6820;49.374;8.452;2022-11-15T17:43:05;12.89;99.99
13496;DHT22;6820;49.374;8.452;2022-11-15T17:47:06;12.89;99.99
13496;DHT22;6820;49.374;8.452;2022-11-15T17:51:12;12.88;99.99
13496;DHT22;6820;49.374;8.452;2022-11-15T17:55:14;12.88;99.99
13496;DHT22;6820;49.374;8.452;2022-11-15T17:59:16;12.87;99.99
13496;DHT22;6820;49.374;8.452;2022-11-15T18:03:22;12.87;99.99
13496;DHT22;6820;49.374;8.452;2022-11-15T18:07:23;12.85;99.99
13496;DHT22;6820;49.374;8.452;2022-11-15T18:11:32;12.84;99.99
13496;DHT22;6820;49.374;8.452;2022-11-15T18:15:35;12.84;99.99
13496;DHT22;6820;49.374;8.452;2022-11-15T18:19:37;12.81;99.99
13496;DHT22;6820;49.374;8.452;2022-11-15T18:23:39;12.81;99.99
13496;DHT22;6820;49.374;8.452;2022-11-15T18:27:42;12.79;99.99
13496;DHT22;6820;49.374;8.452;2022-11-15T18:31:43;12.80;99.99
13496;DHT22;6820;49.374;8.452;2022-11-15T18:35:48;12.79;99.99
13496;DHT22;6820;49.374;8.452;2022-11-15T18:39:49;12.77;99.99
13496;DHT22;6820;49.374;8.452;2022-11-15T18:43:54;12.76;99.99
13496;DHT22;6820;49.374;8.452;2022-11-15T18:47:57;12.76;99.99
13496;DHT22;6820;49.374;8.452;2022-11-15T18:51:59;12.74;99.99
13496;DHT22;6820;49.374;8.452;2022-11-15T18:56:01;12.73;99.99
13496;DHT22;6820;49.374;8.452;2022-11-15T19:00:08;12.73;99.99
13496;DHT22;6820;49.374;8.452;2022-11-15T19:04:14;12.73;99.99
13496;DHT22;6820;49.374;8.452;2022-11-15T19:08:18;12.70;99.99
13496;DHT22;6820;49.374;8.452;2022-11-15T19:12:20;12.70;99.99
13496;DHT22;6820;49.374;8.452;2022-11-15T19:16:22;12.70;99.99
13496;DHT22;6820;49.374;8.452;2022-11-15T19:20:24;12.69;99.99
13496;DHT22;6820;49.374;8.452;2022-11-15T19:24:26;12.69;99.99
13496;DHT22;6820;49.374;8.452;2022-11-15T19:28:27;12.69;99.99
13496;DHT22;6820;49.374;8.452;2022-11-15T19:32:29;12.67;99.99
13496;DHT22;6820;49.374;8.452;2022-11-15T19:36:36;12.66;99.99
13496;DHT22;6820;49.374;8.452;2022-11-15T19:40:39;12.66;99.99
13496;DHT22;6820;49.374;8.452;2022-11-15T19:44:41;12.66;99.99
13496;DHT22;6820;49.374;8.452;2022-11-15T19:48:42;12.63;99.99
13496;DHT22;6820;49.374;8.452;2022-11-15T19:52:44;12.66;99.99
13496;DHT22;6820;49.374;8.452;2022-11-15T19:56:46;12.66;99.99
13496;DHT22;6820;49.374;8.452;2022-11-15T20:00:48;12.63;99.99
13496;DHT22;6820;49.374;8.452;2022-11-15T20:04:50;12.66;99.99
13496;DHT22;6820;49.374;8.452;2022-11-15T20:08:52;12.63;99.99
13496;DHT22;6820;49.374;8.452;2022-11-15T20:12:54;12.62;99.99
13496;DHT22;6820;49.374;8.452;2022-11-15T20:16:55;12.62;99.99
13496;DHT22;6820;49.374;8.452;2022-11-15T20:20:57;12.63;99.99
13496;DHT22;6820;49.374;8.452;2022-11-15T20:24:59;12.63;99.99
13496;DHT22;6820;49.374;8.452;2022-11-15T20:29:01;12.62;99.99
13496;DHT22;6820;49.374;8.452;2022-11-15T20:33:03;12.61;99.99
13496;DHT22;6820;49.374;8.452;2022-11-15T20:37:05;12.61;99.99
13496;DHT22;6820;49.374;8.452;2022-11-15T20:41:06;12.61;99.99
13496;DHT22;6820;49.374;8.452;2022-11-15T20:45:08;12.59;99.99
13496;DHT22;6820;49.374;8.452;2022-11-15T20:49:10;12.59;99.99
13496;DHT22;6820;49.374;8.452;2022-11-15T20:53:13;12.59;99.99
13496;DHT22;6820;49.374;8.452;2022-11-15T20:57:16;12.59;99.99
13496;DHT22;6820;49.374;8.452;2022-11-15T21:01:18;12.59;99.99
13496;DHT22;6820;49.374;8.452;2022-11-15T21:05:25;12.59;99.99
13496;DHT22;6820;49.374;8.452;2022-11-15T21:09:27;12.59;99.99
13496;DHT22;6820;49.374;8.452;2022-11-15T21:13:47;12.59;99.99
13496;DHT22;6820;49.374;8.452;2022-11-15T21:17:48;12.56;99.99
13496;DHT22;6820;49.374;8.452;2022-11-15T21:21:50;12.59;99.99
13496;DHT22;6820;49.374;8.452;2022-11-15T21:25:51;12.58;99.99
13496;DHT22;6820;49.374;8.452;2022-11-15T21:29:53;12.58;99.99
13496;DHT22;6820;49.374;8.452;2022-11-15T21:33:55;12.58;99.99
13496;DHT22;6820;49.374;8.452;2022-11-15T21:37:56;12.56;99.99
13496;DHT22;6820;49.374;8.452;2022-11-15T21:41:58;12.56;99.99
13496;DHT22;6820;49.374;8.452;2022-11-15T21:46:00;12.55;99.99
13496;DHT22;6820;49.374;8.452;2022-11-15T21:50:04;12.54;99.99
13496;DHT22;6820;49.374;8.452;2022-11-15T21:54:06;12.54;99.99
13496;DHT22;6820;49.374;8.452;2022-11-15T21:58:08;12.54;99.99
13496;DHT22;6820;49.374;8.452;2022-11-15T22:02:10;12.52;99.99
13496;DHT22;6820;49.374;8.452;2022-11-15T22:06:17;12.51;99.99
13496;DHT22;6820;49.374;8.452;2022-11-15T22:10:18;12.49;99.99
13496;DHT22;6820;49.374;8.452;2022-11-15T22:14:20;12.48;99.99
13496;DHT22;6820;49.374;8.452;2022-11-15T22:18:22;12.48;99.99
13496;DHT22;6820;49.374;8.452;2022-11-15T22:22:32;12.43;99.99
13496;DHT22;6820;49.374;8.452;2022-11-15T22:26:33;12.41;99.99
13496;DHT22;6820;49.374;8.452;2022-11-15T22:30:35;12.37;99.99
13496;DHT22;6820;49.374;8.452;2022-11-15T22:34:37;12.36;99.99
13496;DHT22;6820;49.374;8.452;2022-11-15T22:38:38;12.34;99.99
13496;DHT22;6820;49.374;8.452;2022-11-15T22:42:40;12.31;99.99
13496;DHT22;6820;49.374;8.452;2022-11-15T22:46:42;12.30;99.99
13496;DHT22;6820;49.374;8.452;2022-11-15T22:50:43;12.29;99.99
13496;DHT22;6820;49.374;8.452;2022-11-15T22:54:45;12.26;99.99
13496;DHT22;6820;49.374;8.452;2022-11-15T22:58:47;12.29;99.99
13496;DHT22;6820;49.374;8.452;2022-11-15T23:02:49;12.29;99.99
13496;DHT22;6820;49.374;8.452;2022-11-15T23:06:55;12.29;99.99
13496;DHT22;6820;49.374;8.452;2022-11-15T23:11:00;12.30;99.99
13496;DHT22;6820;49.374;8.452;2022-11-15T23:15:22;12.26;99.99
13496;DHT22;6820;49.374;8.452;2022-11-15T23:19:23;12.23;99.99
13496;DHT22;6820;49.374;8.452;2022-11-15T23:23:25;12.21;99.99
13496;DHT22;6820;49.374;8.452;2022-11-15T23:27:27;12.21;99.99
13496;DHT22;6820;49.374;8.452;2022-11-15T23:31:28;12.21;99.99
13496;DHT22;6820;49.374;8.452;2022-11-15T23:36:02;12.19;99.99
13496;DHT22;6820;49.374;8.452;2022-11-15T23:40:04;12.16;99.99
13496;DHT22;6820;49.374;8.452;2022-11-15T23:44:06;12.13;99.99
13496;DHT22;6820;49.374;8.452;2022-11-15T23:48:08;12.12;99.99
13496;DHT22;6820;49.374;8.452;2022-11-15T23:52:09;12.08;99.99
13496;DHT22;6820;49.374;8.452;2022-11-15T23:56:12;12.08;99.99
